aviador You're here:

KLIC Decoded Metar

LIMON in CO, USA
Report Time2018-06-24 22:30:00
UTC Time2018-06-24 22:43:33
Flight Rules vfr VFR
Wind010° at 18 kt
W.Decomp.*RWY 34: 17.0 kt HW 5.9 kt RCW
W.Rank010° ranks 9
Current wind is above 010° avg. (9.2)
Visibility9999 m
Phenomena:N/A
Clouds:Few 050 Hf
Broken 080 Hf
Overcast 110 Hf
Expected CloudBase > 400 ft AGL from Temp-Dew spread
Ceiling8,000 ft
Temp10°C (ISA +6)
Dew Point09°C (94% RH)
AAT3.3°C
QNH1019 hPa
Density Alt5,981 ft
Elevation5,348 ft
Report Wrong Elevation
Raw Report
KLIC 242230Z AUTO 01018KT 10SM FEW050 BKN080 OVC110 10/09 A3010=

Extra information for KLIC:More info

Metar Taf Metar & Taf Last 4 Metars F.Rules Stats Wind Profile Meteogram Temp Stats Airport Information Weather charts Add Link Nearby VenuesMetar ALERT Operation Metar Decoded Social comments

AIRNAV info for KLIC